METAR Data
IDs: Format: Raw Decoded Include TAF

Data at: 0131 UTC 24 May 2019

METAR for:K6B9 (Skaneateles Arpt, NY, US)
Text:K6B9 240115Z AUTO 29007G16KT 240V320 10SM SCT049 SCT055 21/14 A2982 RMK AO2
Temperature: 21.0°C ( 70°F)
Dewpoint: 14.0°C ( 57°F) [RH = 64%]
Pressure (altimeter):29.82 inches Hg (1009.9 mb)
Winds:from the WNW (290 degrees) at 8 MPH (7 knots; 3.6 m/s) gusting to 18 MPH (16 knots; 8.2 m/s)
Visibility:10 or more sm (16+ km)
Ceiling:at least 12,000 feet AGL
Clouds: scattered clouds at 4900 feet AGL, scattered clouds at 5500 feet AGL
QC Flag:automated observation with no human augmentation
Text:K6B9 240055Z AUTO 27011G23KT 240V300 10SM FEW042 BKN050 BKN075 21/14 A2982 RMK AO2 P0004
Temperature: 21.0°C ( 70°F)
Dewpoint: 14.0°C ( 57°F) [RH = 64%]
Pressure (altimeter):29.82 inches Hg (1009.9 mb)
Winds:from the W (270 degrees) at 13 MPH (11 knots; 5.7 m/s) gusting to 26 MPH (23 knots; 11.8 m/s)
Visibility:10 or more sm (16+ km)
Ceiling:5000 feet AGL
Clouds: few clouds at 4200 feet AGL, broken clouds at 5000 feet AGL, broken clouds at 7500 feet AGL
QC Flag:automated observation with no human augmentation
Text:K6B9 240035Z AUTO 28009G14KT 240V310 10SM FEW028 BKN043 OVC050 20/16 A2981 RMK AO2
Temperature: 20.0°C ( 68°F)
Dewpoint: 16.0°C ( 61°F) [RH = 78%]
Pressure (altimeter):29.81 inches Hg (1009.6 mb)
Winds:from the W (280 degrees) at 10 MPH (9 knots; 4.6 m/s) gusting to 16 MPH (14 knots; 7.2 m/s)
Visibility:10 or more sm (16+ km)
Ceiling:4300 feet AGL
Clouds: few clouds at 2800 feet AGL, broken clouds at 4300 feet AGL, overcast cloud deck at 5000 feet AGL
QC Flag:automated observation with no human augmentation
Text:K6B9 240015Z AUTO VRB04G12KT 3SM -RA FEW004 SCT041 BKN055 20/16 A2980 RMK AO2
Temperature: 20.0°C ( 68°F)
Dewpoint: 16.0°C ( 61°F) [RH = 78%]
Pressure (altimeter):29.80 inches Hg (1009.2 mb)
Winds:variable direction winds at 5 MPH (4 knots; 2.1 m/s) gusting to 14 MPH (12 knots; 6.2 m/s)
Visibility: 3 sm ( 5 km)
Ceiling:5500 feet AGL
Clouds: few clouds at 400 feet AGL, scattered clouds at 4100 feet AGL, broken clouds at 5500 feet AGL
Weather:-RA (light rain)
QC Flag:automated observation with no human augmentation
Text:K6B9 232355Z AUTO 27009G19KT 10SM SCT055 BKN065 BKN075 23/14 A2979 RMK AO2
Temperature: 23.0°C ( 73°F)
Dewpoint: 14.0°C ( 57°F) [RH = 57%]
Pressure (altimeter):29.79 inches Hg (1008.9 mb)
Winds:from the W (270 degrees) at 10 MPH (9 knots; 4.6 m/s) gusting to 22 MPH (19 knots; 9.8 m/s)
Visibility:10 or more sm (16+ km)
Ceiling:6500 feet AGL
Clouds: scattered clouds at 5500 feet AGL, broken clouds at 6500 feet AGL, broken clouds at 7500 feet AGL
QC Flag:automated observation with no human augmentation
Text:K6B9 232335Z AUTO 25012G22KT 10SM BKN060 BKN070 23/14 A2979 RMK AO2
Temperature: 23.0°C ( 73°F)
Dewpoint: 14.0°C ( 57°F) [RH = 57%]
Pressure (altimeter):29.79 inches Hg (1008.9 mb)
Winds:from the WSW (250 degrees) at 14 MPH (12 knots; 6.2 m/s) gusting to 25 MPH (22 knots; 11.3 m/s)
Visibility:10 or more sm (16+ km)
Ceiling:6000 feet AGL
Clouds: broken clouds at 6000 feet AGL, broken clouds at 7000 feet AGL
QC Flag:automated observation with no human augmentation
Text:K6B9 232315Z AUTO 26012G19KT 10SM SCT060 SCT070 23/13 A2978 RMK AO2
Temperature: 23.0°C ( 73°F)
Dewpoint: 13.0°C ( 55°F) [RH = 53%]
Pressure (altimeter):29.78 inches Hg (1008.5 mb)
Winds:from the W (260 degrees) at 14 MPH (12 knots; 6.2 m/s) gusting to 22 MPH (19 knots; 9.8 m/s)
Visibility:10 or more sm (16+ km)
Ceiling:at least 12,000 feet AGL
Clouds: scattered clouds at 6000 feet AGL, scattered clouds at 7000 feet AGL
QC Flag:automated observation with no human augmentation
Text:K6B9 232255Z AUTO 26011G26KT 230V290 10SM CLR 24/13 A2978 RMK AO2
Temperature: 24.0°C ( 75°F)
Dewpoint: 13.0°C ( 55°F) [RH = 50%]
Pressure (altimeter):29.78 inches Hg (1008.5 mb)
Winds:from the W (260 degrees) at 13 MPH (11 knots; 5.7 m/s) gusting to 30 MPH (26 knots; 13.4 m/s)
Visibility:10 or more sm (16+ km)
Ceiling:at least 12,000 feet AGL
Clouds:sky clear below 12,000 feet AGL
QC Flag:automated observation with no human augmentation
Text:K6B9 232235Z AUTO 26015G29KT 10SM CLR 25/14 A2979 RMK AO2
Temperature: 25.0°C ( 77°F)
Dewpoint: 14.0°C ( 57°F) [RH = 50%]
Pressure (altimeter):29.79 inches Hg (1008.9 mb)
Winds:from the W (260 degrees) at 17 MPH (15 knots; 7.7 m/s) gusting to 33 MPH (29 knots; 14.9 m/s)
Visibility:10 or more sm (16+ km)
Ceiling:at least 12,000 feet AGL
Clouds:sky clear below 12,000 feet AGL
QC Flag:automated observation with no human augmentation
Text:K6B9 232215Z AUTO 26012G25KT 240V310 10SM FEW048 FEW060 FEW070 25/16 A2979 RMK AO2
Temperature: 25.0°C ( 77°F)
Dewpoint: 16.0°C ( 61°F) [RH = 57%]
Pressure (altimeter):29.79 inches Hg (1008.9 mb)
Winds:from the W (260 degrees) at 14 MPH (12 knots; 6.2 m/s) gusting to 29 MPH (25 knots; 12.9 m/s)
Visibility:10 or more sm (16+ km)
Ceiling:at least 12,000 feet AGL
Clouds: few clouds at 4800 feet AGL, few clouds at 6000 feet AGL, few clouds at 7000 feet AGL
QC Flag:automated observation with no human augmentation
Text:K6B9 232155Z AUTO 26010KT 10SM SCT047 BKN060 BKN070 25/17 A2980 RMK AO2
Temperature: 25.0°C ( 77°F)
Dewpoint: 17.0°C ( 63°F) [RH = 61%]
Pressure (altimeter):29.80 inches Hg (1009.2 mb)
Winds:from the W (260 degrees) at 12 MPH (10 knots; 5.1 m/s)
Visibility:10 or more sm (16+ km)
Ceiling:6000 feet AGL
Clouds: scattered clouds at 4700 feet AGL, broken clouds at 6000 feet AGL, broken clouds at 7000 feet AGL
QC Flag:automated observation with no human augmentation
Text:K6B9 232135Z AUTO 24010G16KT 10SM FEW045 BKN055 BKN065 24/18 A2980 RMK AO2
Temperature: 24.0°C ( 75°F)
Dewpoint: 18.0°C ( 64°F) [RH = 69%]
Pressure (altimeter):29.80 inches Hg (1009.2 mb)
Winds:from the WSW (240 degrees) at 12 MPH (10 knots; 5.1 m/s) gusting to 18 MPH (16 knots; 8.2 m/s)
Visibility:10 or more sm (16+ km)
Ceiling:5500 feet AGL
Clouds: few clouds at 4500 feet AGL, broken clouds at 5500 feet AGL, broken clouds at 6500 feet AGL
QC Flag:automated observation with no human augmentation
Text:K6B9 232115Z AUTO 23010KT 10SM FEW049 BKN060 BKN075 24/18 A2980 RMK AO2
Temperature: 24.0°C ( 75°F)
Dewpoint: 18.0°C ( 64°F) [RH = 69%]
Pressure (altimeter):29.80 inches Hg (1009.2 mb)
Winds:from the SW (230 degrees) at 12 MPH (10 knots; 5.1 m/s)
Visibility:10 or more sm (16+ km)
Ceiling:6000 feet AGL
Clouds: few clouds at 4900 feet AGL, broken clouds at 6000 feet AGL, broken clouds at 7500 feet AGL
QC Flag:automated observation with no human augmentation
Text:K6B9 232055Z AUTO VRB05G13KT 10SM BKN049 BKN060 OVC090 23/18 A2981 RMK AO2
Temperature: 23.0°C ( 73°F)
Dewpoint: 18.0°C ( 64°F) [RH = 73%]
Pressure (altimeter):29.81 inches Hg (1009.6 mb)
Winds:variable direction winds at 6 MPH (5 knots; 2.6 m/s) gusting to 15 MPH (13 knots; 6.7 m/s)
Visibility:10 or more sm (16+ km)
Ceiling:4900 feet AGL
Clouds: broken clouds at 4900 feet AGL, broken clouds at 6000 feet AGL, overcast cloud deck at 9000 feet AGL
QC Flag:automated observation with no human augmentation
Text:K6B9 232035Z AUTO VRB06G11KT 10SM FEW040 BKN047 OVC060 23/18 A2982 RMK AO2
Temperature: 23.0°C ( 73°F)
Dewpoint: 18.0°C ( 64°F) [RH = 73%]
Pressure (altimeter):29.82 inches Hg (1009.9 mb)
Winds:variable direction winds at 7 MPH (6 knots; 3.1 m/s) gusting to 13 MPH (11 knots; 5.7 m/s)
Visibility:10 or more sm (16+ km)
Ceiling:4700 feet AGL
Clouds: few clouds at 4000 feet AGL, broken clouds at 4700 feet AGL, overcast cloud deck at 6000 feet AGL
QC Flag:automated observation with no human augmentation
Text:K6B9 232015Z AUTO VRB06G13KT 10SM SCT040 BKN046 OVC060 23/18 A2984 RMK AO2
Temperature: 23.0°C ( 73°F)
Dewpoint: 18.0°C ( 64°F) [RH = 73%]
Pressure (altimeter):29.84 inches Hg (1010.6 mb)
Winds:variable direction winds at 7 MPH (6 knots; 3.1 m/s) gusting to 15 MPH (13 knots; 6.7 m/s)
Visibility:10 or more sm (16+ km)
Ceiling:4600 feet AGL
Clouds: scattered clouds at 4000 feet AGL, broken clouds at 4600 feet AGL, overcast cloud deck at 6000 feet AGL
QC Flag:automated observation with no human augmentation
Text:K6B9 231955Z AUTO VRB06G13KT 10SM FEW045 BKN055 OVC070 23/18 A2985 RMK AO2
Temperature: 23.0°C ( 73°F)
Dewpoint: 18.0°C ( 64°F) [RH = 73%]
Pressure (altimeter):29.85 inches Hg (1010.9 mb)
Winds:variable direction winds at 7 MPH (6 knots; 3.1 m/s) gusting to 15 MPH (13 knots; 6.7 m/s)
Visibility:10 or more sm (16+ km)
Ceiling:5500 feet AGL
Clouds: few clouds at 4500 feet AGL, broken clouds at 5500 feet AGL, overcast cloud deck at 7000 feet AGL
QC Flag:automated observation with no human augmentation
Text:K6B9 231935Z AUTO 20008G14KT 150V230 10SM SCT055 SCT080 BKN095 23/18 A2986 RMK AO2
Temperature: 23.0°C ( 73°F)
Dewpoint: 18.0°C ( 64°F) [RH = 73%]
Pressure (altimeter):29.86 inches Hg (1011.3 mb)
Winds:from the SSW (200 degrees) at 9 MPH (8 knots; 4.1 m/s) gusting to 16 MPH (14 knots; 7.2 m/s)
Visibility:10 or more sm (16+ km)
Ceiling:9500 feet AGL
Clouds: scattered clouds at 5500 feet AGL, scattered clouds at 8000 feet AGL, broken clouds at 9500 feet AGL
QC Flag:automated observation with no human augmentation
Text:K6B9 231915Z AUTO 18008G14KT 120V240 10SM BKN095 BKN110 24/18 A2986 RMK AO2
Temperature: 24.0°C ( 75°F)
Dewpoint: 18.0°C ( 64°F) [RH = 69%]
Pressure (altimeter):29.86 inches Hg (1011.3 mb)
Winds:from the S (180 degrees) at 9 MPH (8 knots; 4.1 m/s) gusting to 16 MPH (14 knots; 7.2 m/s)
Visibility:10 or more sm (16+ km)
Ceiling:9500 feet AGL
Clouds: broken clouds at 9500 feet AGL, broken clouds at 11000 feet AGL
QC Flag:automated observation with no human augmentation
Text:K6B9 231855Z AUTO VRB05G10KT 10SM BKN095 23/18 A2988 RMK AO2
Temperature: 23.0°C ( 73°F)
Dewpoint: 18.0°C ( 64°F) [RH = 73%]
Pressure (altimeter):29.88 inches Hg (1011.9 mb)
Winds:variable direction winds at 6 MPH (5 knots; 2.6 m/s) gusting to 12 MPH (10 knots; 5.1 m/s)
Visibility:10 or more sm (16+ km)
Ceiling:9500 feet AGL
Clouds: broken clouds at 9500 feet AGL
QC Flag:automated observation with no human augmentation
Text:K6B9 231835Z AUTO VRB03KT 10SM SCT055 BKN090 21/17 A2989 RMK AO2
Temperature: 21.0°C ( 70°F)
Dewpoint: 17.0°C ( 63°F) [RH = 78%]
Pressure (altimeter):29.89 inches Hg (1012.3 mb)
Winds:variable direction winds at 3 MPH (3 knots; 1.5 m/s)
Visibility:10 or more sm (16+ km)
Ceiling:9000 feet AGL
Clouds: scattered clouds at 5500 feet AGL, broken clouds at 9000 feet AGL
QC Flag:automated observation with no human augmentation
Text:K6B9 231815Z AUTO VRB04KT 10SM BKN060 BKN075 BKN085 20/17 A2991 RMK AO2
Temperature: 20.0°C ( 68°F)
Dewpoint: 17.0°C ( 63°F) [RH = 83%]
Pressure (altimeter):29.91 inches Hg (1013.0 mb)
Winds:variable direction winds at 5 MPH (4 knots; 2.1 m/s)
Visibility:10 or more sm (16+ km)
Ceiling:6000 feet AGL
Clouds: broken clouds at 6000 feet AGL, broken clouds at 7500 feet AGL, broken clouds at 8500 feet AGL
QC Flag:automated observation with no human augmentation
Text:K6B9 231755Z AUTO VRB05KT 10SM FEW045 SCT075 BKN085 21/16 A2992 RMK AO2
Temperature: 21.0°C ( 70°F)
Dewpoint: 16.0°C ( 61°F) [RH = 73%]
Pressure (altimeter):29.92 inches Hg (1013.3 mb)
Winds:variable direction winds at 6 MPH (5 knots; 2.6 m/s)
Visibility:10 or more sm (16+ km)
Ceiling:8500 feet AGL
Clouds: few clouds at 4500 feet AGL, scattered clouds at 7500 feet AGL, broken clouds at 8500 feet AGL
QC Flag:automated observation with no human augmentation
Text:K6B9 231735Z AUTO 21012KT 160V230 10SM BKN090 OVC110 21/16 A2994 RMK AO2
Temperature: 21.0°C ( 70°F)
Dewpoint: 16.0°C ( 61°F) [RH = 73%]
Pressure (altimeter):29.94 inches Hg (1014.0 mb)
Winds:from the SSW (210 degrees) at 14 MPH (12 knots; 6.2 m/s)
Visibility:10 or more sm (16+ km)
Ceiling:9000 feet AGL
Clouds: broken clouds at 9000 feet AGL, overcast cloud deck at 11000 feet AGL
QC Flag:automated observation with no human augmentation
Text:K6B9 231715Z AUTO VRB05KT 10SM SCT100 21/16 A2993 RMK AO2
Temperature: 21.0°C ( 70°F)
Dewpoint: 16.0°C ( 61°F) [RH = 73%]
Pressure (altimeter):29.93 inches Hg (1013.6 mb)
Winds:variable direction winds at 6 MPH (5 knots; 2.6 m/s)
Visibility:10 or more sm (16+ km)
Ceiling:at least 12,000 feet AGL
Clouds: scattered clouds at 10000 feet AGL
QC Flag:automated observation with no human augmentation
Text:K6B9 231655Z AUTO VRB05G11KT 10SM FEW039 FEW090 21/16 A2996 RMK AO2
Temperature: 21.0°C ( 70°F)
Dewpoint: 16.0°C ( 61°F) [RH = 73%]
Pressure (altimeter):29.96 inches Hg (1014.6 mb)
Winds:variable direction winds at 6 MPH (5 knots; 2.6 m/s) gusting to 13 MPH (11 knots; 5.7 m/s)
Visibility:10 or more sm (16+ km)
Ceiling:at least 12,000 feet AGL
Clouds: few clouds at 3900 feet AGL, few clouds at 9000 feet AGL
QC Flag:automated observation with no human augmentation
Text:K6B9 231635Z AUTO VRB06KT 10SM CLR 22/16 A2999 RMK AO2
Temperature: 22.0°C ( 72°F)
Dewpoint: 16.0°C ( 61°F) [RH = 69%]
Pressure (altimeter):29.99 inches Hg (1015.7 mb)
Winds:variable direction winds at 7 MPH (6 knots; 3.1 m/s)
Visibility:10 or more sm (16+ km)
Ceiling:at least 12,000 feet AGL
Clouds:sky clear below 12,000 feet AGL
QC Flag:automated observation with no human augmentation
Text:K6B9 231615Z AUTO VRB05G11KT 10SM FEW070 21/15 A2998 RMK AO2
Temperature: 21.0°C ( 70°F)
Dewpoint: 15.0°C ( 59°F) [RH = 69%]
Pressure (altimeter):29.98 inches Hg (1015.3 mb)
Winds:variable direction winds at 6 MPH (5 knots; 2.6 m/s) gusting to 13 MPH (11 knots; 5.7 m/s)
Visibility:10 or more sm (16+ km)
Ceiling:at least 12,000 feet AGL
Clouds: few clouds at 7000 feet AGL
QC Flag:automated observation with no human augmentation
Text:K6B9 231555Z AUTO VRB06G11KT 10SM FEW036 SCT046 SCT060 20/15 A3000 RMK AO2
Temperature: 20.0°C ( 68°F)
Dewpoint: 15.0°C ( 59°F) [RH = 73%]
Pressure (altimeter):30.00 inches Hg (1016.0 mb)
Winds:variable direction winds at 7 MPH (6 knots; 3.1 m/s) gusting to 13 MPH (11 knots; 5.7 m/s)
Visibility:10 or more sm (16+ km)
Ceiling:at least 12,000 feet AGL
Clouds: few clouds at 3600 feet AGL, scattered clouds at 4600 feet AGL, scattered clouds at 6000 feet AGL
QC Flag:automated observation with no human augmentation
Text:K6B9 231535Z AUTO VRB05KT 10SM BKN035 BKN045 21/15 A3000 RMK AO2
Temperature: 21.0°C ( 70°F)
Dewpoint: 15.0°C ( 59°F) [RH = 69%]
Pressure (altimeter):30.00 inches Hg (1016.0 mb)
Winds:variable direction winds at 6 MPH (5 knots; 2.6 m/s)
Visibility:10 or more sm (16+ km)
Ceiling:3500 feet AGL
Clouds: broken clouds at 3500 feet AGL, broken clouds at 4500 feet AGL
QC Flag:automated observation with no human augmentation
Text:K6B9 231515Z AUTO VRB06G12KT 10SM BKN039 BKN044 BKN060 21/15 A2999 RMK AO2
Temperature: 21.0°C ( 70°F)
Dewpoint: 15.0°C ( 59°F) [RH = 69%]
Pressure (altimeter):29.99 inches Hg (1015.7 mb)
Winds:variable direction winds at 7 MPH (6 knots; 3.1 m/s) gusting to 14 MPH (12 knots; 6.2 m/s)
Visibility:10 or more sm (16+ km)
Ceiling:3900 feet AGL
Clouds: broken clouds at 3900 feet AGL, broken clouds at 4400 feet AGL, broken clouds at 6000 feet AGL
QC Flag:automated observation with no human augmentation
Text:K6B9 231455Z AUTO VRB06G12KT 10SM SCT041 BKN060 BKN070 21/15 A2999 RMK AO2
Temperature: 21.0°C ( 70°F)
Dewpoint: 15.0°C ( 59°F) [RH = 69%]
Pressure (altimeter):29.99 inches Hg (1015.7 mb)
Winds:variable direction winds at 7 MPH (6 knots; 3.1 m/s) gusting to 14 MPH (12 knots; 6.2 m/s)
Visibility:10 or more sm (16+ km)
Ceiling:6000 feet AGL
Clouds: scattered clouds at 4100 feet AGL, broken clouds at 6000 feet AGL, broken clouds at 7000 feet AGL
QC Flag:automated observation with no human augmentation
Text:K6B9 231435Z AUTO 20007G16KT 150V230 10SM FEW044 FEW060 FEW090 21/15 A3000 RMK AO2
Temperature: 21.0°C ( 70°F)
Dewpoint: 15.0°C ( 59°F) [RH = 69%]
Pressure (altimeter):30.00 inches Hg (1016.0 mb)
Winds:from the SSW (200 degrees) at 8 MPH (7 knots; 3.6 m/s) gusting to 18 MPH (16 knots; 8.2 m/s)
Visibility:10 or more sm (16+ km)
Ceiling:at least 12,000 feet AGL
Clouds: few clouds at 4400 feet AGL, few clouds at 6000 feet AGL, few clouds at 9000 feet AGL
QC Flag:automated observation with no human augmentation
Text:K6B9 231415Z AUTO 22008G13KT 10SM FEW042 SCT048 SCT075 21/15 A3000 RMK AO2
Temperature: 21.0°C ( 70°F)
Dewpoint: 15.0°C ( 59°F) [RH = 69%]
Pressure (altimeter):30.00 inches Hg (1016.0 mb)
Winds:from the SW (220 degrees) at 9 MPH (8 knots; 4.1 m/s) gusting to 15 MPH (13 knots; 6.7 m/s)
Visibility:10 or more sm (16+ km)
Ceiling:at least 12,000 feet AGL
Clouds: few clouds at 4200 feet AGL, scattered clouds at 4800 feet AGL, scattered clouds at 7500 feet AGL
QC Flag:automated observation with no human augmentation
Text:K6B9 231355Z AUTO VRB05KT 10SM FEW050 FEW060 SCT075 20/14 A3001 RMK AO2
Temperature: 20.0°C ( 68°F)
Dewpoint: 14.0°C ( 57°F) [RH = 68%]
Pressure (altimeter):30.01 inches Hg (1016.3 mb)
Winds:variable direction winds at 6 MPH (5 knots; 2.6 m/s)
Visibility:10 or more sm (16+ km)
Ceiling:at least 12,000 feet AGL
Clouds: few clouds at 5000 feet AGL, few clouds at 6000 feet AGL, scattered clouds at 7500 feet AGL
QC Flag:automated observation with no human augmentation
Text:K6B9 231335Z AUTO 16006G11KT 10SM CLR 20/14 A3002 RMK AO2
Temperature: 20.0°C ( 68°F)
Dewpoint: 14.0°C ( 57°F) [RH = 68%]
Pressure (altimeter):30.02 inches Hg (1016.7 mb)
Winds:from the SSE (160 degrees) at 7 MPH (6 knots; 3.1 m/s) gusting to 13 MPH (11 knots; 5.7 m/s)
Visibility:10 or more sm (16+ km)
Ceiling:at least 12,000 feet AGL
Clouds:sky clear below 12,000 feet AGL
QC Flag:automated observation with no human augmentation